Decoded Metar for UKKM (GOSTOMEL in UKRAINE) (IATA:N/A) | Meteo·Mobile Aviation Weather
aviador You're here:

UKKM Decoded Metar

GOSTOMEL in UKRAINE
Report Time2018-12-17 09:00:00
UTC Time2018-12-17 09:31:16
Flight Rules ifr IFR
Wind120° at 8 kt
W.Decomp.*RWY 15: 6.6 kt HW 4.6 kt LCW
W.Rank120° ranks 34
Current wind is above 120° avg. (5.7)
Visibility9999 m
Phenomena:N/A
Clouds:Overcast 006 Hf
Ceiling600 ft
Temp-7°C (ISA -21)
Dew Point-7°C (100% RH)
AAT-12.7°C
QNH1028 hPa
Density Alt-2,549 ft
Elevation515 ft
Report Wrong Elevation
Raw Report
UKKM 170900Z 12004MPS 090V150 9999 OVC006 M07/M07 Q1028 R15/850448
NOSIG=

Extra information for UKKM:More info

Metar Taf Metar & Taf Last 4 Metars F.Rules Stats Wind Profile Meteogram Temp Stats Airport Information Weather charts Add Link Nearby VenuesMetar ALERT Operation Metar Decoded Social comments